PWSweather.com
Personal Weather Stations
Station Observations
PITCARMI1
La Serra, CarmignanoIT 59015

La SerraCarmignanoIT 59015

Lat: 43.804429, Lon: 11.027222

Elevation: 525

Station Type: Davis Vantage Vue

http://www.meteocarmignano.it

High Low Average
Temperature 69.2°F20.7°F 54.1°F12.3°F 61.7°F16.5°F
Dew Point 46.7°F8.2°F 42.7°F5.9°F 45.1°F7.3°F
Winds 11.5 mph NE18.5 mph NE Calm Calm 4.3 mph 6.9 mph
Wind Gusts 17.3 mph27.8 mph -- 7.1 mph11.4 mph
Humidity 70% 44% 55%
Pressure 30.11 in1019.60 in 30.04 in1017.30 in -
Precipitation 0.00 in0.00 in - -
Hour Temp Dew Point Humidity Winds Wind Gusts Pressure Precip Precip Rate Daily Precip Total
12:00 AM 56.4°F13.6°C 43.5°F6.4°C 62% Calm Calm 1.2 mph1.9 kmh 30.04 in1017.3 mb - 0.00 in0.0 mm 0.00 in0.0 mm
12:30 AM 56.8°F13.8°C 44.7°F7.1°C 64% 1.2 mph NE1.9 kmh NE 1.2 mph1.9 kmh 30.04 in1017.3 mb - 0.00 in0.0 mm 0.00 in0.0 mm
01:00 AM 56.3°F13.5°C 45.1°F7.3°C 66% Calm Calm -- 30.04 in1017.3 mb - 0.00 in0.0 mm 0.00 in0.0 mm
01:30 AM 55.9°F13.3°C 45.9°F7.7°C 69% Calm Calm 1.2 mph1.9 kmh 30.05 in1017.6 mb - 0.00 in0.0 mm 0.00 in0.0 mm
02:00 AM 55.1°F12.8°C 45.5°F7.5°C 70% Calm Calm 1.2 mph1.9 kmh 30.06 in1017.9 mb - 0.00 in0.0 mm 0.00 in0.0 mm
02:30 AM 55.2°F12.9°C 45.2°F7.3°C 69% Calm Calm 1.2 mph1.9 kmh 30.06 in1017.9 mb - 0.00 in0.0 mm 0.00 in0.0 mm
03:00 AM 55.9°F13.3°C 45.1°F7.3°C 67% 2.3 mph NE3.7 kmh NE 3.5 mph5.6 kmh 30.07 in1018.3 mb - 0.00 in0.0 mm 0.00 in0.0 mm
03:30 AM 55.0°F12.8°C 44.6°F7.0°C 68% Calm Calm -- 30.06 in1017.9 mb - 0.00 in0.0 mm 0.00 in0.0 mm
04:00 AM 54.1°F12.3°C 43.7°F6.5°C 68% Calm Calm -- 30.07 in1018.3 mb - 0.00 in0.0 mm 0.00 in0.0 mm
04:30 AM 55.1°F12.8°C 42.7°F5.9°C 63% Calm Calm 1.2 mph1.9 kmh 30.07 in1018.3 mb - 0.00 in0.0 mm 0.00 in0.0 mm
05:00 AM 55.7°F13.2°C 42.9°F6.1°C 62% 2.3 mph NW3.7 kmh NW 3.5 mph5.6 kmh 30.07 in1018.3 mb - 0.00 in0.0 mm 0.00 in0.0 mm
05:30 AM 56.3°F13.5°C 43.0°F6.1°C 61% 2.3 mph NW3.7 kmh NW 4.6 mph7.4 kmh 30.08 in1018.6 mb - 0.00 in0.0 mm 0.00 in0.0 mm
06:00 AM 57.4°F14.1°C 42.7°F5.9°C 58% 5.8 mph NE9.3 kmh NE 6.9 mph11.1 kmh 30.08 in1018.6 mb - 0.00 in0.0 mm 0.00 in0.0 mm
06:30 AM 58.7°F14.8°C 43.5°F6.4°C 57% 1.2 mph NE1.9 kmh NE 4.6 mph7.4 kmh 30.09 in1019.0 mb - 0.00 in0.0 mm 0.00 in0.0 mm
07:00 AM 60.1°F15.6°C 45.2°F7.3°C 58% 2.3 mph ENE3.7 kmh ENE 3.5 mph5.6 kmh 30.09 in1019.0 mb - 0.00 in0.0 mm 0.00 in0.0 mm
07:30 AM 61.6°F16.4°C 45.7°F7.6°C 56% 4.6 mph NE7.4 kmh NE 6.9 mph11.1 kmh 30.09 in1019.0 mb - 0.00 in0.0 mm 0.00 in0.0 mm
08:00 AM 61.6°F16.4°C 46.2°F7.9°C 57% 3.5 mph NE5.6 kmh NE 4.6 mph7.4 kmh 30.10 in1019.3 mb - 0.00 in0.0 mm 0.00 in0.0 mm
08:30 AM 61.6°F16.4°C 46.7°F8.2°C 58% 5.8 mph ENE9.3 kmh ENE 12.7 mph20.4 kmh 30.10 in1019.3 mb - 0.00 in0.0 mm 0.00 in0.0 mm
09:00 AM 62.4°F16.9°C 46.0°F7.8°C 55% 6.9 mph NE11.1 kmh NE 12.7 mph20.4 kmh 30.11 in1019.6 mb - 0.00 in0.0 mm 0.00 in0.0 mm
09:30 AM 63.5°F17.5°C 45.6°F7.6°C 52% 6.9 mph NE11.1 kmh NE 9.2 mph14.8 kmh 30.11 in1019.6 mb - 0.00 in0.0 mm 0.00 in0.0 mm
10:00 AM 63.9°F17.7°C 45.4°F7.4°C 51% 6.9 mph ENE11.1 kmh ENE 13.8 mph22.2 kmh 30.11 in1019.6 mb - 0.00 in0.0 mm 0.00 in0.0 mm
10:30 AM 64.4°F18.0°C 44.3°F6.8°C 48% 10.4 mph NE16.7 kmh NE 15.0 mph24.1 kmh 30.11 in1019.6 mb - 0.00 in0.0 mm 0.00 in0.0 mm
11:00 AM 66.5°F19.2°C 44.5°F6.9°C 45% 8.1 mph NE13.0 kmh NE 12.7 mph20.4 kmh 30.10 in1019.3 mb - 0.00 in0.0 mm 0.00 in0.0 mm
11:30 AM 67.0°F19.4°C 44.9°F7.2°C 45% 9.2 mph ENE14.8 kmh ENE 15.0 mph24.1 kmh 30.10 in1019.3 mb - 0.00 in0.0 mm 0.00 in0.0 mm
12:00 PM 68.7°F20.4°C 45.9°F7.7°C 44% 5.8 mph E9.3 kmh E 9.2 mph14.8 kmh 30.10 in1019.3 mb - 0.00 in0.0 mm 0.00 in0.0 mm
12:30 PM 68.5°F20.3°C 45.7°F7.6°C 44% 6.9 mph NE11.1 kmh NE 11.5 mph18.5 kmh 30.10 in1019.3 mb - 0.00 in0.0 mm 0.00 in0.0 mm
01:00 PM 67.9°F19.9°C 45.8°F7.7°C 45% 9.2 mph NE14.8 kmh NE 15.0 mph24.1 kmh 30.09 in1019.0 mb - 0.00 in0.0 mm 0.00 in0.0 mm
01:30 PM 67.7°F19.8°C 46.2°F7.9°C 46% 9.2 mph NE14.8 kmh NE 13.8 mph22.2 kmh 30.09 in1019.0 mb - 0.00 in0.0 mm 0.00 in0.0 mm
02:00 PM 66.5°F19.2°C 45.0°F7.2°C 46% 11.5 mph NE18.5 kmh NE 13.8 mph22.2 kmh 30.09 in1019.0 mb - 0.00 in0.0 mm 0.00 in0.0 mm
02:30 PM 69.2°F20.7°C 46.3°F7.9°C 44% 8.1 mph NE13.0 kmh NE 17.3 mph27.8 kmh 30.08 in1018.6 mb - 0.00 in0.0 mm 0.00 in0.0 mm
03:00 PM 68.1°F20.1°C 45.9°F7.7°C 45% 2.3 mph E3.7 kmh E 3.5 mph5.6 kmh 30.07 in1018.3 mb - 0.00 in0.0 mm 0.00 in0.0 mm
03:30 PM 67.7°F19.8°C 46.2°F7.9°C 46% 9.2 mph NE14.8 kmh NE 17.3 mph27.8 kmh 30.07 in1018.3 mb - 0.00 in0.0 mm 0.00 in0.0 mm
04:00 PM 67.2°F19.6°C 45.1°F7.3°C 45% 11.5 mph NE18.5 kmh NE 16.1 mph25.9 kmh 30.06 in1017.9 mb - 0.00 in0.0 mm 0.00 in0.0 mm
04:30 PM 67.4°F19.7°C 45.3°F7.4°C 45% 6.9 mph NE11.1 kmh NE 10.4 mph16.7 kmh 30.06 in1017.9 mb - 0.00 in0.0 mm 0.00 in0.0 mm
05:00 PM 66.7°F19.3°C 45.3°F7.4°C 46% 4.6 mph ENE7.4 kmh ENE 5.8 mph9.3 kmh 30.06 in1017.9 mb - 0.00 in0.0 mm 0.00 in0.0 mm
05:30 PM 66.5°F19.2°C 44.5°F6.9°C 45% 6.9 mph ENE11.1 kmh ENE 11.5 mph18.5 kmh 30.06 in1017.9 mb - 0.00 in0.0 mm 0.00 in0.0 mm
06:00 PM 66.6°F19.2°C 45.2°F7.3°C 46% 4.6 mph NE7.4 kmh NE 8.1 mph13.0 kmh 30.05 in1017.6 mb - 0.00 in0.0 mm 0.00 in0.0 mm
06:30 PM 65.7°F18.7°C 45.5°F7.5°C 48% 8.1 mph NE13.0 kmh NE 11.5 mph18.5 kmh 30.05 in1017.6 mb - 0.00 in0.0 mm 0.00 in0.0 mm
07:00 PM 64.0°F17.8°C 46.0°F7.8°C 52% 5.8 mph NE9.3 kmh NE 11.5 mph18.5 kmh 30.05 in1017.6 mb - 0.00 in0.0 mm 0.00 in0.0 mm
07:30 PM 62.5°F16.9°C 46.1°F7.8°C 55% 5.8 mph NE9.3 kmh NE 4.6 mph7.4 kmh 30.06 in1017.9 mb - 0.00 in0.0 mm 0.00 in0.0 mm
08:00 PM 61.6°F16.4°C 45.8°F7.7°C 56% 1.2 mph ESE1.9 kmh ESE 3.5 mph5.6 kmh 30.08 in1018.6 mb - 0.00 in0.0 mm 0.00 in0.0 mm
08:30 PM 60.7°F15.9°C 46.2°F7.9°C 59% 1.2 mph ENE1.9 kmh ENE 2.3 mph3.7 kmh 30.09 in1019.0 mb - 0.00 in0.0 mm 0.00 in0.0 mm
09:00 PM 59.8°F15.4°C 46.3°F7.9°C 61% Calm Calm 2.3 mph3.7 kmh 30.09 in1019.0 mb - 0.00 in0.0 mm 0.00 in0.0 mm
09:30 PM 58.8°F14.9°C 45.8°F7.7°C 62% 1.2 mph NE1.9 kmh NE 2.3 mph3.7 kmh 30.10 in1019.3 mb - 0.00 in0.0 mm 0.00 in0.0 mm
10:00 PM 59.3°F15.2°C 45.0°F7.2°C 59% 3.5 mph NE5.6 kmh NE 5.8 mph9.3 kmh 30.10 in1019.3 mb - 0.00 in0.0 mm 0.00 in0.0 mm
10:30 PM 58.4°F14.7°C 44.6°F7.0°C 60% 3.5 mph ENE5.6 kmh ENE 5.8 mph9.3 kmh 30.10 in1019.3 mb - 0.00 in0.0 mm 0.00 in0.0 mm
11:00 PM 58.0°F14.4°C 45.0°F7.2°C 62% Calm Calm -- 30.10 in1019.3 mb - 0.00 in0.0 mm 0.00 in0.0 mm
11:30 PM 57.9°F14.4°C 44.5°F6.9°C 61% 1.2 mph NE1.9 kmh NE 1.2 mph1.9 kmh 30.10 in1019.3 mb - 0.00 in0.0 mm 0.00 in0.0 mm